Time;durP1;ratioP1;P1;durP2;ratioP2;P2;SDS_P1;SDS_P2;PMS_P1;PMS_P2;Temp;Humidity;BMP_temperature;BMP_pressure;BME280_temperature;BME280_humidity;BME280_pressure;Samples;Min_cycle;Max_cycle;Signal;HPM_P1;HPM_P2
2023/03/18 00:04:31;;;;;;;5.15;2.25;;;;;;;0.61;56.02;102242.19;10507196;28;20037;-80
2023/03/18 00:09:33;;;;;;;3.22;2.15;;;;;;;0.63;56.00;102232.06;10500282;28;20055;-81
2023/03/18 00:14:37;;;;;;;3.72;1.95;;;;;;;0.66;55.74;102233.56;10514888;28;20040;-81
2023/03/18 00:19:40;;;;;;;7.13;1.85;;;;;;;0.63;55.83;102226.66;10493689;28;20037;-80
2023/03/18 00:24:42;;;;;;;3.15;2.13;;;;;;;0.60;56.23;102217.03;10520261;28;20040;-80
2023/03/18 00:29:44;;;;;;;3.05;1.70;;;;;;;0.72;55.36;102217.50;10486864;28;20040;-80
2023/03/18 00:34:47;;;;;;;4.63;2.28;;;;;;;0.74;55.56;102220.84;10523328;28;20516;-80
2023/03/18 00:39:50;;;;;;;2.60;1.48;;;;;;;0.66;55.41;102204.69;10509958;28;20048;-81
2023/03/18 00:44:53;;;;;;;2.38;1.48;;;;;;;0.62;55.51;102214.16;10507817;28;20409;-80
2023/03/18 00:49:55;;;;;;;3.08;1.67;;;;;;;0.73;55.39;102218.34;10506686;28;20045;-79
2023/03/18 00:54:57;;;;;;;2.78;1.40;;;;;;;0.76;55.02;102213.41;10508901;28;20090;-79
2023/03/18 01:00:00;;;;;;;2.50;1.52;;;;;;;0.75;55.00;102210.88;10511975;28;20059;-79
2023/03/18 01:05:02;;;;;;;3.53;1.60;;;;;;;0.84;55.20;102199.84;10481236;28;20044;-80
2023/03/18 01:10:05;;;;;;;3.28;1.20;;;;;;;0.89;54.80;102204.72;10463322;28;20101;-80
2023/03/18 01:15:11;;;;;;;3.88;1.88;;;;;;;0.71;55.13;102194.19;10528327;28;20037;-80
2023/03/18 01:20:16;;;;;;;3.10;1.55;;;;;;;0.80;54.53;102200.38;10526061;28;20051;-79
2023/03/18 01:25:19;;;;;;;1.70;1.20;;;;;;;0.93;54.49;102197.09;10473438;28;20059;-80
2023/03/18 01:30:27;;;;;;;2.85;1.55;;;;;;;0.91;54.69;102189.16;10504522;28;20522;-80
2023/03/18 01:35:31;;;;;;;2.03;1.48;;;;;;;0.87;54.23;102185.16;10509515;28;20048;-79
2023/03/18 01:40:35;;;;;;;2.28;1.40;;;;;;;0.73;54.47;102186.75;10525112;28;20498;-79
2023/03/18 01:45:44;;;;;;;1.73;1.10;;;;;;;0.73;54.24;102185.91;10467220;28;20398;-80
2023/03/18 01:50:53;;;;;;;2.92;1.60;;;;;;;0.73;54.46;102189.47;10462556;28;20397;-79
2023/03/18 01:55:56;;;;;;;3.17;1.13;;;;;;;0.74;53.84;102169.53;10492554;28;20038;-80
2023/03/18 02:01:13;;;;;;;1.92;1.00;;;;;;;0.80;53.94;102170.66;10490988;28;20045;-80
2023/03/18 02:06:15;;;;;;;4.40;1.23;;;;;;;0.75;53.99;102165.81;10494613;28;20051;-79
2023/03/18 02:11:19;;;;;;;1.20;1.10;;;;;;;0.80;53.70;102171.50;10502328;28;20143;-80
2023/03/18 02:16:29;;;;;;;3.60;1.35;;;;;;;0.76;53.60;102172.88;10492386;28;20055;-80
2023/03/18 02:21:58;;;;;;;3.33;1.20;;;;;;;0.72;53.67;102157.22;10502198;28;20036;-79
2023/03/18 02:27:14;;;;;;;2.60;1.00;;;;;;;0.80;53.94;102149.88;10520724;28;20044;-79
2023/03/18 02:32:17;;;;;;;3.75;1.27;;;;;;;0.78;53.95;102160.03;10487995;28;20036;-79
2023/03/18 02:37:20;;;;;;;1.88;1.27;;;;;;;0.72;53.95;102144.56;10464555;28;20044;-80
2023/03/18 02:42:28;;;;;;;3.15;1.30;;;;;;;0.78;53.96;102146.53;10485604;28;20043;-80
2023/03/18 02:47:31;;;;;;;2.92;1.30;;;;;;;0.93;54.06;102153.84;10482059;28;20437;-81
2023/03/18 02:52:34;;;;;;;2.33;1.45;;;;;;;0.90;53.51;102169.41;10519032;28;20040;-81
2023/03/18 02:57:37;;;;;;;2.15;1.15;;;;;;;1.10;53.72;102172.47;10493569;28;20066;-80
2023/03/18 03:02:40;;;;;;;2.15;1.30;;;;;;;1.20;52.88;102161.38;10492486;28;20049;-79
2023/03/18 03:07:42;;;;;;;2.22;1.40;;;;;;;1.14;52.67;102167.53;10526163;28;20430;-81
2023/03/18 03:12:46;;;;;;;3.47;1.45;;;;;;;1.08;52.92;102162.88;10481778;28;20525;-80
2023/03/18 03:17:55;;;;;;;1.58;1.23;;;;;;;1.05;53.35;102166.78;10530466;28;20257;-80
2023/03/18 03:22:57;;;;;;;3.42;1.17;;;;;;;1.24;53.25;102161.88;10526469;28;20051;-79
2023/03/18 03:28:00;;;;;;;3.22;1.33;;;;;;;1.29;52.72;102160.31;10514250;28;20040;-80
2023/03/18 03:33:02;;;;;;;2.42;1.20;;;;;;;1.37;52.43;102145.84;10510401;28;20524;-79
2023/03/18 03:38:05;;;;;;;6.57;1.08;;;;;;;1.32;52.72;102137.47;10521020;28;20049;-79
2023/03/18 03:43:10;;;;;;;3.50;1.15;;;;;;;1.34;52.31;102141.66;10479262;28;20427;-80
2023/03/18 03:48:13;;;;;;;4.22;1.00;;;;;;;1.33;52.71;102139.97;10493260;28;20490;-80
2023/03/18 03:53:15;;;;;;;1.73;1.23;;;;;;;1.30;52.54;102123.28;10513218;28;20056;-79
2023/03/18 03:58:18;;;;;;;3.30;1.60;;;;;;;1.26;52.46;102133.63;10502017;28;20036;-79
2023/03/18 04:03:24;;;;;;;2.72;1.25;;;;;;;1.36;52.44;102128.78;10505295;28;20043;-80
2023/03/18 04:08:26;;;;;;;3.15;1.60;;;;;;;1.28;52.36;102123.47;10532850;28;20044;-79
2023/03/18 04:13:30;;;;;;;2.50;1.15;;;;;;;1.21;52.14;102109.00;10494376;28;20055;-80
2023/03/18 04:18:32;;;;;;;4.15;1.58;;;;;;;1.31;53.00;102106.03;10495793;28;20040;-80
2023/03/18 04:23:36;;;;;;;3.38;1.30;;;;;;;1.22;52.66;102099.88;10523240;28;20067;-80
2023/03/18 04:28:39;;;;;;;2.88;1.45;;;;;;;1.24;52.87;102097.84;10512968;28;20497;-80
2023/03/18 04:33:44;;;;;;;2.63;1.15;;;;;;;1.27;52.84;102104.72;10492921;28;20060;-79
2023/03/18 04:38:46;;;;;;;2.47;1.48;;;;;;;1.39;52.41;102103.22;10530410;28;20066;-79
2023/03/18 04:43:49;;;;;;;4.03;1.30;;;;;;;1.42;52.67;102098.31;10496516;28;20052;-79
2023/03/18 04:48:53;;;;;;;2.13;1.42;;;;;;;1.58;52.33;102097.31;10531281;28;20044;-79
2023/03/18 04:53:56;;;;;;;6.00;2.05;;;;;;;1.52;51.66;102095.31;10498226;28;20060;-80
2023/03/18 04:58:59;;;;;;;1.42;1.02;;;;;;;1.61;51.85;102096.09;10524076;28;20147;-81
2023/03/18 05:04:07;;;;;;;2.60;1.27;;;;;;;1.68;51.57;102089.72;10483502;28;20051;-79
2023/03/18 05:09:18;;;;;;;7.80;1.88;;;;;;;1.86;51.94;102085.81;10509434;28;20049;-79
2023/03/18 05:14:20;;;;;;;2.67;1.20;;;;;;;2.10;51.23;102083.63;10519839;28;20052;-78
2023/03/18 05:19:24;;;;;;;5.47;1.00;;;;;;;2.03;51.09;102073.75;10507067;28;20040;-79
2023/03/18 05:24:45;;;;;;;1.52;0.80;;;;;;;2.27;49.81;102080.69;10502526;28;20037;-80
2023/03/18 05:29:47;;;;;;;4.57;1.20;;;;;;;2.24;50.94;102067.53;10485641;28;20049;-79
2023/03/18 05:34:54;;;;;;;7.25;1.35;;;;;;;2.33;50.45;102064.50;10489846;28;20041;-80
2023/03/18 05:39:57;;;;;;;3.45;1.25;;;;;;;2.44;50.33;102054.22;10502950;28;20402;-81
2023/03/18 05:45:01;;;;;;;4.90;1.25;;;;;;;2.43;49.90;102050.66;10484140;28;20044;-81
2023/03/18 05:50:03;;;;;;;3.58;1.23;;;;;;;2.35;50.10;102061.59;10509711;28;20040;-80
2023/03/18 05:55:12;;;;;;;7.28;1.33;;;;;;;2.40;49.58;102057.28;10477499;28;20040;-80
2023/03/18 06:00:14;;;;;;;2.20;0.98;;;;;;;2.39;50.18;102047.47;10508239;28;20040;-79
2023/03/18 06:05:23;;;;;;;10.07;1.92;;;;;;;2.33;50.34;102056.38;10456435;28;20040;-80
2023/03/18 06:10:25;;;;;;;1.45;0.90;;;;;;;2.47;50.04;102051.94;10488200;28;20506;-80
2023/03/18 06:15:29;;;;;;;3.80;1.27;;;;;;;2.53;50.44;102045.75;10480986;28;20044;-80
2023/03/18 06:20:32;;;;;;;5.47;1.38;;;;;;;2.64;49.34;102036.28;10478109;28;20040;-79
2023/03/18 06:25:35;;;;;;;4.03;1.25;;;;;;;2.70;49.86;102044.44;10491686;28;20515;-80
2023/03/18 06:30:38;;;;;;;2.30;1.08;;;;;;;2.80;50.27;102035.16;10496683;28;20040;-80
2023/03/18 06:35:41;;;;;;;3.17;1.20;;;;;;;2.89;49.70;102034.81;10503006;28;20071;-80
2023/03/18 06:40:43;;;;;;;2.05;1.10;;;;;;;3.15;49.44;102034.19;10498219;28;20497;-80
2023/03/18 06:45:47;;;;;;;5.47;1.40;;;;;;;3.19;48.74;102030.03;10481896;28;20044;-79
2023/03/18 06:50:49;;;;;;;2.58;1.00;;;;;;;3.32;48.77;102045.56;10504038;28;20040;-81
2023/03/18 06:55:59;;;;;;;2.85;1.45;;;;;;;3.19;48.96;102040.88;10492654;28;20043;-80
2023/03/18 07:01:11;;;;;;;4.05;1.75;;;;;;;3.26;49.12;102047.19;10483220;28;20044;-79
2023/03/18 07:06:17;;;;;;;3.03;1.30;;;;;;;3.19;48.84;102045.47;10543641;28;20071;-81
2023/03/18 07:11:20;;;;;;;4.45;1.48;;;;;;;3.38;48.65;102043.94;10481852;28;20063;-80
2023/03/18 07:16:24;;;;;;;1.80;0.80;;;;;;;3.50;47.93;102042.34;10476577;28;20207;-80
2023/03/18 07:21:28;;;;;;;2.70;1.17;;;;;;;3.53;47.89;102034.63;10488530;28;20040;-80
2023/03/18 07:26:30;;;;;;;3.58;1.38;;;;;;;3.52;48.28;102042.97;10482121;28;20513;-79
2023/03/18 07:31:33;;;;;;;3.33;1.20;;;;;;;3.54;48.13;102038.19;10485546;28;20044;-80
2023/03/18 07:36:38;;;;;;;4.43;1.40;;;;;;;3.43;47.66;102041.44;10478169;28;20033;-81
2023/03/18 07:41:40;;;;;;;9.25;1.23;;;;;;;3.49;47.48;102037.94;10484900;28;20037;-79
2023/03/18 07:46:43;;;;;;;1.95;0.90;;;;;;;3.44;48.35;102024.97;10496883;28;20044;-81
2023/03/18 07:51:46;;;;;;;3.83;1.17;;;;;;;3.57;48.34;102026.91;10522814;28;20056;-79
2023/03/18 07:56:51;;;;;;;3.38;1.30;;;;;;;3.67;47.69;102032.00;10493256;28;20036;-84
2023/03/18 08:01:53;;;;;;;1.77;0.63;;;;;;;3.75;46.93;102018.22;10474615;28;20040;-84
2023/03/18 08:06:56;;;;;;;1.23;0.90;;;;;;;3.92;47.35;102023.09;10514777;28;20144;-82
2023/03/18 08:11:59;;;;;;;2.15;1.20;;;;;;;3.96;46.71;102015.38;10516577;28;20076;-81
2023/03/18 08:17:02;;;;;;;1.08;0.82;;;;;;;3.97;47.31;102016.22;10476566;28;20041;-82
2023/03/18 08:22:04;;;;;;;1.35;1.08;;;;;;;3.91;46.71;102009.72;10498383;28;20040;-85
2023/03/18 08:27:08;;;;;;;3.03;1.30;;;;;;;3.78;47.13;102009.69;10493758;28;20051;-81
2023/03/18 08:32:10;;;;;;;4.53;1.15;;;;;;;3.94;46.01;102004.72;10508648;28;20036;-83
2023/03/18 08:37:13;;;;;;;1.52;1.15;;;;;;;4.08;46.69;102015.63;10482792;28;20036;-80
2023/03/18 08:42:15;;;;;;;1.52;1.00;;;;;;;4.27;45.39;102016.72;10532587;28;20514;-81
2023/03/18 08:47:18;;;;;;;3.05;1.15;;;;;;;4.27;45.18;102001.25;10535921;28;20047;-82
2023/03/18 08:52:21;;;;;;;4.05;0.95;;;;;;;4.39;45.65;102005.06;10491116;28;20051;-79
2023/03/18 08:57:26;;;;;;;2.50;1.00;;;;;;;4.36;44.63;101993.78;10504591;28;20056;-80
2023/03/18 09:02:28;;;;;;;1.02;0.93;;;;;;;4.42;45.00;101991.03;10491616;28;20036;-79
2023/03/18 09:07:31;;;;;;;1.65;0.80;;;;;;;4.62;43.75;101998.38;10525952;28;20040;-80
2023/03/18 09:12:33;;;;;;;1.30;1.10;;;;;;;4.75;43.67;101995.66;10515022;28;20143;-79
2023/03/18 09:17:39;;;;;;;1.42;0.88;;;;;;;4.69;42.94;101991.06;10524669;28;20043;-79
2023/03/18 09:22:42;;;;;;;3.47;1.20;;;;;;;4.81;43.45;101997.53;10511184;28;20432;-79
2023/03/18 09:27:45;;;;;;;1.73;0.85;;;;;;;4.95;42.53;101987.50;10507897;28;20399;-80
2023/03/18 09:32:47;;;;;;;5.05;0.95;;;;;;;4.98;41.56;101982.47;10527102;28;20044;-79
2023/03/18 09:37:49;;;;;;;1.27;0.73;;;;;;;5.24;42.10;101972.59;10527328;28;20494;-80
2023/03/18 09:43:06;;;;;;;2.20;0.82;;;;;;;5.24;41.71;101976.16;10525452;28;20048;-79
2023/03/18 09:48:27;;;;;;;3.08;0.95;;;;;;;5.26;41.14;101974.03;10511933;28;20056;-79
2023/03/18 09:53:40;;;;;;;2.95;1.00;;;;;;;5.28;41.27;101971.94;10526002;28;20048;-80
2023/03/18 09:58:57;;;;;;;1.98;0.73;;;;;;;5.29;41.07;101957.28;10508566;28;20044;-79
2023/03/18 10:04:06;;;;;;;3.90;1.48;;;;;;;5.51;41.88;101963.28;10494931;28;20047;-80
2023/03/18 10:09:44;;;;;;;1.38;0.80;;;;;;;5.72;40.70;101949.34;10509191;28;20056;-80
2023/03/18 10:15:03;;;;;;;6.07;1.50;;;;;;;5.66;40.07;101949.41;10446136;28;20055;-79
2023/03/18 10:20:17;;;;;;;2.17;1.10;;;;;;;5.38;40.62;101939.69;10515404;28;20127;-78
2023/03/18 10:25:39;;;;;;;1.73;0.70;;;;;;;5.48;39.98;101941.09;10527973;28;20333;-80
2023/03/18 10:31:05;;;;;;;1.48;1.10;;;;;;;5.72;39.46;101924.00;10457801;28;20041;-80
2023/03/18 10:36:22;;;;;;;1.42;0.82;;;;;;;5.70;39.70;101926.94;10472874;28;20457;-80
2023/03/18 10:41:31;;;;;;;2.17;0.80;;;;;;;5.75;39.40;101915.44;10510021;28;20047;-80
2023/03/18 10:46:34;;;;;;;1.52;1.08;;;;;;;5.48;38.84;101920.16;10497953;28;20052;-80
2023/03/18 10:51:52;;;;;;;1.83;1.00;;;;;;;5.56;40.08;101911.75;10492739;28;20040;-80
2023/03/18 10:56:55;;;;;;;1.85;1.02;;;;;;;5.80;39.48;101907.44;10503449;28;20040;-80
2023/03/18 11:02:01;;;;;;;0.63;0.45;;;;;;;5.99;39.75;101892.03;10523601;28;20048;-80
2023/03/18 11:07:07;;;;;;;2.78;1.05;;;;;;;5.99;40.67;101894.75;10504379;28;20047;-79
2023/03/18 11:12:18;;;;;;;2.90;1.00;;;;;;;5.99;40.60;101876.53;10504421;28;20067;-80
2023/03/18 11:17:30;;;;;;;0.95;0.77;;;;;;;5.97;40.29;101878.63;10504442;28;20497;-78
2023/03/18 11:22:33;;;;;;;1.55;1.27;;;;;;;5.76;41.70;101865.34;10507360;28;20028;-79
2023/03/18 11:27:40;;;;;;;3.15;1.25;;;;;;;5.80;41.71;101852.13;10506524;28;20051;-77
2023/03/18 11:33:16;;;;;;;1.88;0.95;;;;;;;5.89;41.29;101845.34;10526316;28;20048;-79
2023/03/18 11:38:31;;;;;;;2.33;1.00;;;;;;;5.78;41.68;101836.00;10494261;28;20064;-78
2023/03/18 11:43:35;;;;;;;2.08;1.00;;;;;;;5.64;42.16;101818.06;10515733;28;20041;-77
2023/03/18 11:48:39;;;;;;;2.78;1.00;;;;;;;5.69;42.47;101829.97;10462248;28;20503;-78
2023/03/18 11:53:45;;;;;;;1.48;0.65;;;;;;;5.60;42.23;101825.84;10514467;28;20037;-79
2023/03/18 11:58:59;;;;;;;1.67;0.90;;;;;;;5.48;43.02;101829.47;10532274;28;20043;-79
2023/03/18 12:04:12;;;;;;;1.33;0.70;;;;;;;5.66;42.69;101807.78;10527280;28;20532;-78
2023/03/18 12:09:26;;;;;;;1.77;0.80;;;;;;;5.62;42.15;101799.25;10513359;28;20048;-80
2023/03/18 12:14:51;;;;;;;1.00;0.75;;;;;;;5.64;42.88;101818.06;10513376;28;20053;-78
2023/03/18 12:20:04;;;;;;;2.10;0.90;;;;;;;5.63;42.14;101783.72;10492192;28;20414;-79
2023/03/18 12:25:16;;;;;;;7.63;1.42;;;;;;;5.64;43.08;101779.94;10521009;28;20490;-79
2023/03/18 12:30:34;;;;;;;0.80;0.70;;;;;;;5.79;43.13;101779.63;10532965;28;20040;-79
2023/03/18 12:35:48;;;;;;;4.60;1.00;;;;;;;5.83;42.29;101778.13;10515875;28;20045;-79
2023/03/18 12:41:16;;;;;;;1.65;0.98;;;;;;;5.87;43.12;101771.19;10532791;28;20056;-80
2023/03/18 12:46:18;;;;;;;;;;;;;;;5.88;42.61;101767.41;10504753;28;20049;-79
2023/03/18 12:51:24;;;;;;;1.58;1.00;;;;;;;5.88;43.48;101770.94;10497318;28;19924;-79
2023/03/18 12:56:29;;;;;;;1.15;0.80;;;;;;;5.97;42.92;101750.59;10514133;28;20485;-79
2023/03/18 13:01:46;;;;;;;1.15;0.90;;;;;;;6.04;42.10;101755.97;10499260;28;20047;-78
2023/03/18 13:07:06;;;;;;;2.53;0.70;;;;;;;5.87;42.54;101730.31;10472660;28;20494;-79
2023/03/18 13:12:14;;;;;;;0.60;0.50;;;;;;;5.82;43.04;101744.63;10522560;28;20083;-80
2023/03/18 13:17:23;;;;;;;2.97;1.02;;;;;;;5.84;42.91;101741.66;10506268;28;20100;-79
2023/03/18 13:22:41;;;;;;;2.25;1.05;;;;;;;5.88;42.75;101734.72;10510091;28;20040;-80
2023/03/18 13:27:52;;;;;;;2.55;0.90;;;;;;;5.82;43.41;101711.09;10514219;28;20119;-79
2023/03/18 13:33:16;;;;;;;1.65;0.90;;;;;;;5.98;43.04;101721.47;10473839;28;20048;-80
2023/03/18 13:38:37;;;;;;;0.77;0.70;;;;;;;5.89;43.08;101700.97;10522354;28;20047;-81
2023/03/18 13:43:45;;;;;;;0.57;0.50;;;;;;;5.88;42.88;101704.75;10513342;28;20036;-83
2023/03/18 13:48:48;;;;;;;1.23;1.13;;;;;;;5.73;43.69;101684.16;10513522;28;20044;-80
2023/03/18 13:53:59;;;;;;;1.25;0.75;;;;;;;5.61;43.81;101666.88;10489229;28;20045;-79
2023/03/18 13:59:05;;;;;;;2.70;1.10;;;;;;;5.61;42.93;101666.88;10492806;28;20045;-79
2023/03/18 14:04:30;;;;;;;3.85;1.60;;;;;;;5.63;43.78;101663.94;10515313;28;20421;-79
2023/03/18 14:09:34;;;;;;;3.53;1.33;;;;;;;5.60;43.86;101648.88;10520483;28;20147;-78
2023/03/18 14:14:39;;;;;;;1.90;1.02;;;;;;;5.58;43.20;101621.03;10523642;28;20053;-78
2023/03/18 14:19:43;;;;;;;0.85;0.65;;;;;;;5.56;42.40;101623.16;10517626;28;20045;-78
2023/03/18 14:24:46;;;;;;;3.35;1.05;;;;;;;5.59;42.87;101617.25;10503196;28;20494;-79
2023/03/18 14:29:49;;;;;;;4.85;0.80;;;;;;;5.56;42.63;101615.00;10496421;28;20041;-79
2023/03/18 14:34:59;;;;;;;0.57;0.57;;;;;;;5.58;42.38;101601.97;10509779;28;20051;-78
2023/03/18 14:40:05;;;;;;;3.30;1.05;;;;;;;5.55;42.72;101594.25;10529387;28;20520;-78
2023/03/18 14:45:22;;;;;;;2.70;1.02;;;;;;;5.51;42.38;101595.75;10503249;28;20041;-79
2023/03/18 14:50:38;;;;;;;2.33;0.88;;;;;;;5.45;42.73;101574.88;10493559;28;20476;-79
2023/03/18 14:55:41;;;;;;;1.05;0.68;;;;;;;5.42;42.51;101580.78;10501420;28;20048;-78
2023/03/18 15:00:44;;;;;;;4.68;1.20;;;;;;;5.40;42.63;101566.56;10509151;28;20044;-79
2023/03/18 15:05:47;;;;;;;0.88;0.47;;;;;;;5.41;42.51;101570.94;10509722;28;20441;-78
2023/03/18 15:10:51;;;;;;;0.65;0.63;;;;;;;5.41;42.62;101570.94;10510442;28;20403;-78
2023/03/18 15:15:55;;;;;;;1.88;1.00;;;;;;;5.38;43.09;101574.09;10485146;28;20047;-80
2023/03/18 15:21:08;;;;;;;3.30;1.10;;;;;;;5.27;43.59;101578.41;10543693;28;20048;-79
2023/03/18 15:26:29;;;;;;;1.15;0.93;;;;;;;5.08;43.97;101573.97;10551540;28;20539;-79
2023/03/18 15:31:39;;;;;;;1.58;0.93;;;;;;;4.93;44.18;101577.00;10569787;28;20044;-78
2023/03/18 15:36:42;;;;;;;2.80;1.17;;;;;;;4.83;44.58;101563.06;10569929;28;20048;-79
2023/03/18 15:41:44;;;;;;;1.98;0.90;;;;;;;4.74;44.81;101548.91;10550989;28;20071;-79
2023/03/18 15:46:47;;;;;;;1.70;0.93;;;;;;;4.68;44.20;101551.66;10534361;28;20489;-80
2023/03/18 15:51:57;;;;;;;2.00;1.55;;;;;;;4.65;44.26;101569.25;10568845;28;20044;-81
2023/03/18 15:57:10;;;;;;;1.65;0.98;;;;;;;5.00;44.59;101556.00;10569484;28;20047;-79
2023/03/18 16:02:15;;;;;;;1.20;0.60;;;;;;;5.12;43.20;101540.66;10568664;28;20044;-79
2023/03/18 16:07:21;;;;;;;3.15;1.30;;;;;;;4.99;43.59;101532.59;10551030;28;20046;-80
2023/03/18 16:12:23;;;;;;;3.13;1.17;;;;;;;4.84;43.51;101542.97;10568219;28;20063;-79
2023/03/18 16:17:26;;;;;;;3.72;0.93;;;;;;;4.74;43.19;101520.91;10550476;28;20115;-78
2023/03/18 16:22:29;;;;;;;2.58;1.00;;;;;;;4.76;43.00;101513.34;10571174;28;20040;-80
2023/03/18 16:27:43;;;;;;;2.97;1.42;;;;;;;4.69;43.45;101527.00;10574592;28;20516;-78
2023/03/18 16:32:45;;;;;;;2.78;1.60;;;;;;;4.73;42.35;101522.78;10558213;28;20055;-80
2023/03/18 16:37:48;;;;;;;2.08;1.17;;;;;;;4.67;42.30;101518.19;10575264;28;20052;-79
2023/03/18 16:42:51;;;;;;;3.03;1.35;;;;;;;4.62;42.63;101519.94;10574797;28;20048;-79
2023/03/18 16:47:57;;;;;;;2.60;0.93;;;;;;;4.60;41.78;101512.00;10531784;28;20044;-78
2023/03/18 16:52:59;;;;;;;2.38;1.20;;;;;;;4.50;41.68;101511.63;10514706;28;20361;-79
2023/03/18 16:58:02;;;;;;;6.13;1.50;;;;;;;4.44;41.25;101517.97;10532437;28;20525;-79
2023/03/18 17:03:04;;;;;;;4.90;1.15;;;;;;;4.40;40.98;101516.75;10508648;28;20040;-79
2023/03/18 17:08:06;;;;;;;3.50;1.10;;;;;;;4.35;40.41;101514.69;10531370;28;20099;-78
2023/03/18 17:13:17;;;;;;;4.07;1.15;;;;;;;4.36;41.07;101510.09;10531495;28;20056;-79
2023/03/18 17:18:22;;;;;;;1.95;1.13;;;;;;;4.39;39.84;101510.47;10532150;28;20040;-79
2023/03/18 17:23:27;;;;;;;2.67;1.20;;;;;;;4.38;39.90;101511.53;10531653;28;20494;-78
2023/03/18 17:28:35;;;;;;;3.28;1.20;;;;;;;4.36;39.21;101510.91;10480510;28;20052;-78
2023/03/18 17:33:38;;;;;;;3.00;1.20;;;;;;;4.33;38.81;101499.63;10512691;28;20044;-78
2023/03/18 17:38:40;;;;;;;1.48;0.85;;;;;;;4.40;38.59;101505.88;10513157;28;20052;-78
2023/03/18 17:43:42;;;;;;;1.50;0.82;;;;;;;4.39;37.73;101504.22;10530343;28;20048;-79
2023/03/18 17:48:45;;;;;;;1.77;1.10;;;;;;;4.32;38.25;101504.22;10530263;28;20040;-78
2023/03/18 17:53:50;;;;;;;4.28;1.13;;;;;;;4.37;37.58;101496.28;10523197;28;20417;-79
2023/03/18 17:58:52;;;;;;;2.50;1.40;;;;;;;4.39;37.94;101491.44;10509632;28;20040;-79
2023/03/18 18:03:56;;;;;;;1.98;1.00;;;;;;;4.40;37.84;101490.41;10521522;28;20048;-78
2023/03/18 18:08:59;;;;;;;1.15;0.95;;;;;;;4.42;36.88;101495.63;10509662;28;20043;-78
2023/03/18 18:14:27;;;;;;;1.52;0.80;;;;;;;4.41;37.06;101481.19;10510712;28;20048;-77
2023/03/18 18:19:29;;;;;;;7.10;1.45;;;;;;;4.42;36.20;101488.28;10528576;28;20524;-81
2023/03/18 18:24:32;;;;;;;0.80;0.55;;;;;;;4.45;35.99;101471.53;10510912;28;20044;-79
2023/03/18 18:29:35;;;;;;;1.98;1.25;;;;;;;4.46;35.71;101464.22;10517210;28;20091;-78
2023/03/18 18:34:37;;;;;;;3.05;1.20;;;;;;;4.44;35.57;101471.75;10528948;28;20037;-78
2023/03/18 18:39:40;;;;;;;1.50;0.82;;;;;;;4.46;34.90;101481.34;10528525;28;20036;-77
2023/03/18 18:44:42;;;;;;;0.55;0.43;;;;;;;4.45;35.42;101490.56;10505241;28;20466;-78
2023/03/18 18:49:45;;;;;;;2.55;1.15;;;;;;;4.46;35.08;101491.41;10486095;28;20041;-77
2023/03/18 18:54:52;;;;;;;3.05;0.82;;;;;;;4.44;35.29;101482.63;10508426;28;20048;-78
2023/03/18 18:59:58;;;;;;;1.50;1.00;;;;;;;4.43;34.66;101489.13;10526261;28;20055;-77
2023/03/18 19:05:03;;;;;;;2.72;0.85;;;;;;;4.43;34.49;101470.09;10524087;28;20052;-81
2023/03/18 19:10:07;;;;;;;1.65;1.05;;;;;;;4.43;34.76;101468.22;10490299;28;20053;-77
2023/03/18 19:15:10;;;;;;;2.10;0.90;;;;;;;4.42;34.30;101472.00;10513889;28;20040;-79
2023/03/18 19:20:27;;;;;;;1.27;0.65;;;;;;;4.37;34.34;101463.66;10523961;28;20552;-78
2023/03/18 19:25:30;;;;;;;0.93;0.82;;;;;;;4.36;34.63;101464.72;10464794;28;20201;-78
2023/03/18 19:30:57;;;;;;;4.13;1.08;;;;;;;4.36;34.33;101453.03;10497806;28;20041;-79
2023/03/18 19:36:16;;;;;;;0.52;0.43;;;;;;;4.35;34.36;101441.31;10526462;28;20036;-81
2023/03/18 19:41:18;;;;;;;1.80;1.00;;;;;;;4.36;34.64;101436.72;10503688;28;20036;-81
2023/03/18 19:46:28;;;;;;;1.23;0.77;;;;;;;4.36;34.71;101440.28;10515699;28;20040;-83
2023/03/18 19:51:31;;;;;;;1.02;0.70;;;;;;;4.33;35.00;101435.25;10513279;28;20035;-80
2023/03/18 19:56:34;;;;;;;0.73;0.40;;;;;;;4.34;34.60;101442.38;10520417;28;20048;-80
2023/03/18 20:01:37;;;;;;;0.70;0.70;;;;;;;4.34;34.82;101436.09;10519374;28;20517;-82
2023/03/18 20:07:05;;;;;;;2.33;1.20;;;;;;;4.30;34.64;101445.72;10533676;28;20033;-80
2023/03/18 20:12:20;;;;;;;2.08;1.20;;;;;;;4.32;34.78;101430.88;10533968;28;20059;-82
2023/03/18 20:17:22;;;;;;;1.95;0.90;;;;;;;4.33;34.74;101440.69;10514150;28;20048;-79
2023/03/18 20:22:32;;;;;;;1.98;0.68;;;;;;;4.30;34.73;101432.16;10534552;28;20516;-79
2023/03/18 20:27:34;;;;;;;1.23;0.90;;;;;;;4.30;34.42;101429.44;10531761;28;20048;-80
2023/03/18 20:32:37;;;;;;;1.42;0.93;;;;;;;4.31;34.25;101421.06;10493149;28;20055;-79
2023/03/18 20:37:40;;;;;;;0.80;0.52;;;;;;;4.32;34.62;101416.47;10557032;28;20398;-79
2023/03/18 20:42:42;;;;;;;0.50;0.40;;;;;;;4.28;35.28;101431.53;10526193;28;20075;-79
2023/03/18 20:47:45;;;;;;;1.35;0.90;;;;;;;4.27;34.67;101425.28;10533472;28;20055;-81
2023/03/18 20:52:52;;;;;;;1.55;0.85;;;;;;;4.27;34.43;101410.88;10479800;28;20338;-79
2023/03/18 20:57:59;;;;;;;3.22;0.90;;;;;;;4.29;34.16;101404.16;10528762;28;20052;-78
2023/03/18 21:03:19;;;;;;;2.03;0.77;;;;;;;4.27;33.98;101419.84;10525819;28;20045;-81
2023/03/18 21:08:27;;;;;;;1.23;0.60;;;;;;;4.29;34.39;101409.59;10526662;28;20041;-79
2023/03/18 21:13:36;;;;;;;0.65;0.60;;;;;;;4.28;34.17;101410.63;10529481;28;20063;-80
2023/03/18 21:18:41;;;;;;;1.02;0.50;;;;;;;4.26;34.08;101404.59;10526502;28;20135;-81
2023/03/18 21:23:43;;;;;;;1.48;0.55;;;;;;;4.28;33.84;101410.63;10493004;28;20029;-83
2023/03/18 21:28:46;;;;;;;0.20;0.20;;;;;;;4.27;33.65;101389.97;10531068;28;20040;-80
2023/03/18 21:33:52;;;;;;;1.92;0.50;;;;;;;4.25;33.75;101402.94;10509406;28;20051;-81
2023/03/18 21:38:54;;;;;;;0.63;0.50;;;;;;;4.26;33.36;101396.44;10528705;28;20040;-83
2023/03/18 21:43:57;;;;;;;0.65;0.50;;;;;;;4.28;34.02;101393.50;10503140;28;20049;-82
2023/03/18 21:48:59;;;;;;;3.00;0.73;;;;;;;4.48;34.13;101384.13;10487089;28;20168;-81
2023/03/18 21:54:01;;;;;;;0.45;0.40;;;;;;;4.82;33.86;101373.78;10482805;28;20077;-81
2023/03/18 21:59:03;;;;;;;1.48;0.80;;;;;;;4.82;34.27;101371.06;10501285;28;20036;-82
2023/03/18 22:04:10;;;;;;;0.50;0.40;;;;;;;4.87;34.61;101368.50;10526213;28;20040;-81
2023/03/18 22:09:13;;;;;;;0.93;0.57;;;;;;;4.94;34.71;101374.69;10489751;28;20056;-81
2023/03/18 22:14:15;;;;;;;1.38;0.68;;;;;;;5.21;34.56;101367.06;10490037;28;20035;-81
2023/03/18 22:19:17;;;;;;;3.75;0.73;;;;;;;5.09;33.95;101369.72;10523500;28;20544;-81
2023/03/18 22:24:20;;;;;;;1.48;0.77;;;;;;;4.98;33.22;101373.19;10508729;28;20047;-81
2023/03/18 22:29:26;;;;;;;1.02;0.52;;;;;;;5.02;33.95;101370.84;10491547;28;20040;-81
2023/03/18 22:34:28;;;;;;;5.18;0.80;;;;;;;4.96;33.25;101341.84;10506942;28;20028;-81
2023/03/18 22:39:30;;;;;;;3.60;0.82;;;;;;;5.12;33.74;101346.66;10520200;28;20477;-81
2023/03/18 22:44:33;;;;;;;2.10;0.70;;;;;;;5.13;33.56;101341.00;10508668;28;20032;-81
2023/03/18 22:49:35;;;;;;;0.47;0.47;;;;;;;5.14;33.95;101339.94;10526085;28;20037;-81
2023/03/18 22:54:38;;;;;;;2.10;0.80;;;;;;;4.95;33.60;101341.00;10507295;28;20398;-80
2023/03/18 22:59:41;;;;;;;3.70;0.55;;;;;;;4.96;33.95;101330.94;10525506;28;20405;-81
2023/03/18 23:04:46;;;;;;;0.38;0.32;;;;;;;4.97;33.58;101319.84;10506681;28;20032;-81
2023/03/18 23:09:49;;;;;;;1.63;1.13;;;;;;;4.97;33.76;101317.13;10506119;28;20059;-81
2023/03/18 23:14:54;;;;;;;1.17;0.73;;;;;;;5.04;34.32;101334.22;10510590;28;20036;-80
2023/03/18 23:19:57;;;;;;;3.90;0.88;;;;;;;5.01;34.49;101321.03;10534442;28;20408;-81
2023/03/18 23:25:00;;;;;;;1.73;0.60;;;;;;;5.01;34.84;101318.31;10512833;28;20044;-81
2023/03/18 23:30:02;;;;;;;1.92;1.00;;;;;;;5.11;34.17;101313.19;10520045;28;20139;-82
2023/03/18 23:35:06;;;;;;;2.47;0.85;;;;;;;4.92;35.28;101313.44;10518722;28;20047;-82
2023/03/18 23:40:08;;;;;;;1.27;0.68;;;;;;;4.81;34.72;101318.56;10536104;28;20047;-81
2023/03/18 23:45:11;;;;;;;1.33;0.63;;;;;;;4.80;35.66;101316.06;10518553;28;20433;-80